Time;durP1;ratioP1;P1;durP2;ratioP2;P2;SDS_P1;SDS_P2;PMS_P1;PMS_P2;Temp;Humidity;BMP_temperature;BMP_pressure;BME280_temperature;BME280_humidity;BME280_pressure;Samples;Min_cycle;Max_cycle;Signal;HPM_P1;HPM_P2
2022/08/25 00:01:26;;;;;;;;;16.00;15.75;;;;;24.21;70.63;101747.22;5030916;28;8817;-66
2022/08/25 00:03:57;;;;;;;;;14.00;14.00;;;;;24.22;70.62;101748.03;5029884;28;8853;-66
2022/08/25 00:06:25;;;;;;;;;12.50;11.25;;;;;24.22;70.59;101743.34;5033948;28;8908;-66
2022/08/25 00:08:51;;;;;;;;;14.25;12.50;;;;;24.20;70.61;101741.97;5030325;28;8844;-66
2022/08/25 00:11:21;;;;;;;;;17.00;16.25;;;;;24.21;70.66;101740.88;5013376;28;8845;-65
2022/08/25 00:13:52;;;;;;;;;18.25;18.25;;;;;24.21;70.53;101740.88;5011268;28;8958;-66
2022/08/25 00:16:20;;;;;;;;;17.50;17.50;;;;;24.21;70.41;101740.88;5019313;28;8938;-65
2022/08/25 00:18:51;;;;;;;;;15.25;15.25;;;;;24.16;70.52;101741.66;5030548;28;9658;-66
2022/08/25 00:21:20;;;;;;;;;13.75;13.75;;;;;24.15;70.55;101738.09;5030013;28;8934;-66
2022/08/25 00:23:46;;;;;;;;;15.75;14.75;;;;;24.12;70.54;101733.13;5026516;28;8943;-66
2022/08/25 00:26:14;;;;;;;;;15.00;15.00;;;;;24.12;70.51;101729.53;5029265;28;8907;-65
2022/08/25 00:28:42;;;;;;;;;13.25;13.00;;;;;24.11;70.38;101731.47;5030484;28;8907;-67
2022/08/25 00:31:13;;;;;;;;;11.50;11.50;;;;;24.13;70.32;101725.69;5035879;28;8830;-64
2022/08/25 00:33:42;;;;;;;;;19.00;16.75;;;;;24.14;70.12;101730.91;5024626;28;9806;-66
2022/08/25 00:36:11;;;;;;;;;18.75;15.50;;;;;24.12;70.09;101722.09;5025226;28;8842;-66
2022/08/25 00:38:42;;;;;;;;;18.00;16.50;;;;;24.15;70.02;101718.00;5032414;28;8847;-67
2022/08/25 00:41:11;;;;;;;;;14.25;14.25;;;;;24.12;69.95;101727.63;5028751;28;8929;-67
2022/08/25 00:43:41;;;;;;;;;18.50;18.50;;;;;24.08;69.84;101720.97;5029977;28;8824;-67
2022/08/25 00:46:08;;;;;;;;;18.00;18.00;;;;;24.05;69.92;101723.44;5029973;28;9608;-66
2022/08/25 00:48:39;;;;;;;;;14.50;13.25;;;;;24.03;70.20;101717.38;5035312;28;8824;-67
2022/08/25 00:51:08;;;;;;;;;14.00;13.00;;;;;24.02;70.29;101722.00;5034335;28;8938;-66
2022/08/25 00:53:35;;;;;;;;;20.00;19.25;;;;;24.01;70.17;101725.03;5037517;28;8879;-66
2022/08/25 00:56:02;;;;;;;;;12.25;12.25;;;;;23.96;70.47;101717.59;5030134;28;8954;-67
2022/08/25 00:58:31;;;;;;;;;21.25;19.75;;;;;23.92;70.09;101714.53;5031256;28;8971;-67
2022/08/25 01:00:57;;;;;;;;;19.25;19.25;;;;;23.84;70.84;101714.19;5032714;28;8841;-66
2022/08/25 01:03:26;;;;;;;;;20.25;18.75;;;;;23.80;71.00;101715.78;5028524;28;8836;-67
2022/08/25 01:06:02;;;;;;;;;15.50;15.50;;;;;23.81;70.87;101715.53;5030171;28;8844;-67
2022/08/25 01:08:31;;;;;;;;;17.75;17.50;;;;;23.83;71.16;101715.28;5029683;28;8825;-67
2022/08/25 01:11:01;;;;;;;;;18.75;18.00;;;;;23.84;70.86;101709.50;5029112;28;8947;-66
2022/08/25 01:13:33;;;;;;;;;21.00;20.00;;;;;23.79;70.85;101709.47;5020110;28;9687;-66
2022/08/25 01:16:02;;;;;;;;;18.00;18.00;;;;;23.77;71.29;101702.56;5031569;28;8856;-66
2022/08/25 01:18:42;;;;;;;;;15.75;15.25;;;;;23.76;71.09;101695.41;5028068;28;8939;-67
2022/08/25 01:21:08;;;;;;;;;18.00;16.00;;;;;23.76;70.78;101709.16;5031246;28;8816;-68
2022/08/25 01:23:35;;;;;;;;;19.25;19.25;;;;;23.74;70.70;101701.19;5027162;28;8890;-67
2022/08/25 01:26:40;;;;;;;;;25.25;23.75;;;;;23.69;70.50;101698.38;5038458;28;8829;-67
2022/08/25 01:29:20;;;;;;;;;24.00;22.25;;;;;23.67;70.09;101703.31;4976831;28;8853;-66
2022/08/25 01:31:51;;;;;;;;;17.50;17.50;;;;;23.63;70.09;101700.22;4991989;28;8849;-68
2022/08/25 01:34:18;;;;;;;;;20.00;19.50;;;;;23.63;69.91;101702.97;5019987;28;8846;-68
2022/08/25 01:36:45;;;;;;;;;12.50;12.50;;;;;23.66;69.70;101693.41;5034851;28;8834;-67
2022/08/25 01:39:13;;;;;;;;;19.00;16.00;;;;;23.72;69.46;101705.28;5030008;28;8824;-68
2022/08/25 01:41:47;;;;;;;;;14.25;14.25;;;;;23.74;69.09;101697.56;5029202;28;8962;-67
2022/08/25 01:44:17;;;;;;;;;10.75;10.75;;;;;23.75;68.89;101704.75;5028851;28;8937;-67
2022/08/25 01:46:43;;;;;;;;;15.50;14.25;;;;;23.76;68.58;101695.41;5034665;28;8816;-68
2022/08/25 01:49:10;;;;;;;;;16.00;16.00;;;;;23.75;68.32;101700.09;5032878;28;8828;-67
2022/08/25 01:51:43;;;;;;;;;15.25;13.75;;;;;23.78;68.06;101698.72;5031808;28;8923;-68
2022/08/25 01:54:09;;;;;;;;;16.75;14.75;;;;;23.78;67.87;101696.81;5029417;28;8942;-67
2022/08/25 01:56:35;;;;;;;;;10.25;10.25;;;;;23.81;67.54;101685.28;5031847;28;8961;-68
2022/08/25 01:59:02;;;;;;;;;14.50;14.50;;;;;23.81;67.38;101685.28;5034923;28;8824;-68
2022/08/25 02:01:29;;;;;;;;;17.00;16.25;;;;;23.76;67.40;101682.50;5036564;28;8839;-64
2022/08/25 02:03:56;;;;;;;;;12.00;11.75;;;;;23.75;67.49;101683.59;5033548;28;8828;-67
2022/08/25 02:06:27;;;;;;;;;19.75;17.25;;;;;23.73;66.95;101684.94;5033970;28;8987;-65
2022/08/25 02:08:59;;;;;;;;;15.50;13.50;;;;;23.62;66.94;101679.34;5035084;28;8824;-67
2022/08/25 02:11:29;;;;;;;;;15.25;15.25;;;;;23.63;67.30;101683.72;5027194;28;9608;-67
2022/08/25 02:13:55;;;;;;;;;12.50;12.00;;;;;23.66;67.03;101679.66;5033085;28;8866;-65
2022/08/25 02:16:27;;;;;;;;;15.00;15.00;;;;;23.70;67.03;101680.81;5029857;28;8968;-65
2022/08/25 02:18:55;;;;;;;;;13.25;13.00;;;;;23.71;66.90;101682.47;5029569;28;8817;-66
2022/08/25 02:21:22;;;;;;;;;12.25;10.50;;;;;23.74;66.68;101681.09;5030136;28;8841;-65
2022/08/25 02:23:48;;;;;;;;;10.50;9.75;;;;;23.72;66.73;101677.78;5040158;28;8832;-66
2022/08/25 02:26:17;;;;;;;;;15.25;15.25;;;;;23.71;66.56;101673.38;5034350;28;8881;-66
2022/08/25 02:28:46;;;;;;;;;16.00;16.00;;;;;23.71;66.35;101681.63;5039664;28;8860;-66
2022/08/25 02:31:13;;;;;;;;;14.25;14.25;;;;;23.64;66.67;101679.88;5032337;28;8812;-66
2022/08/25 02:33:40;;;;;;;;;16.50;14.50;;;;;23.61;66.78;101674.06;5029853;28;8901;-66
2022/08/25 02:36:07;;;;;;;;;14.25;14.25;;;;;23.63;66.98;101677.41;5029530;28;8886;-65
2022/08/25 02:38:35;;;;;;;;;14.75;12.75;;;;;23.61;66.82;101666.66;5032296;28;8935;-66
2022/08/25 02:41:11;;;;;;;;;15.00;14.25;;;;;23.58;67.06;101671.88;5032804;28;8845;-66
2022/08/25 02:43:40;;;;;;;;;15.25;14.00;;;;;23.56;66.93;101665.78;5037219;28;8828;-66
2022/08/25 02:46:08;;;;;;;;;17.00;17.00;;;;;23.54;66.89;101666.06;5032335;28;8860;-64
2022/08/25 02:48:35;;;;;;;;;15.25;15.25;;;;;23.53;66.81;101661.63;5029087;28;8856;-66
2022/08/25 02:51:02;;;;;;;;;14.00;13.00;;;;;23.55;66.55;101666.88;5032475;28;8971;-66
2022/08/25 02:53:29;;;;;;;;;15.00;15.00;;;;;23.53;66.62;101664.38;5032513;28;8848;-66
2022/08/25 02:55:55;;;;;;;;;14.25;14.25;;;;;23.50;66.79;101656.69;5035462;28;8883;-66
2022/08/25 02:58:22;;;;;;;;;19.50;17.75;;;;;23.46;66.64;101652.81;5030675;28;9649;-66
2022/08/25 03:00:49;;;;;;;;;15.25;14.50;;;;;23.44;66.46;101657.72;5031524;28;8835;-66
2022/08/25 03:03:17;;;;;;;;;15.75;14.75;;;;;23.39;66.33;101646.69;5031746;28;8832;-66
2022/08/25 03:05:44;;;;;;;;;16.75;16.75;;;;;23.36;66.34;101655.44;5040020;28;8833;-66
2022/08/25 03:08:11;;;;;;;;;13.00;13.00;;;;;23.33;66.50;101650.44;5038915;28;9523;-67
2022/08/25 03:10:38;;;;;;;;;14.00;13.50;;;;;23.31;66.48;101647.97;5032658;28;8828;-67
2022/08/25 03:13:04;;;;;;;;;14.25;14.25;;;;;23.26;66.28;101636.13;5033789;28;8971;-67
2022/08/25 03:15:31;;;;;;;;;15.50;12.25;;;;;23.22;66.16;101638.56;5029016;28;8844;-67
2022/08/25 03:17:58;;;;;;;;;12.00;12.00;;;;;23.23;66.01;101636.63;5036641;28;9565;-67
2022/08/25 03:20:29;;;;;;;;;13.00;12.50;;;;;23.21;65.85;101628.63;5030340;28;9793;-67
2022/08/25 03:22:55;;;;;;;;;12.75;12.25;;;;;23.23;65.92;101631.13;5034226;28;8840;-67
2022/08/25 03:28:07;;;;;;;;;14.25;14.25;;;;;23.18;64.90;101627.25;5030138;28;8851;-66
2022/08/25 03:30:34;;;;;;;;;11.00;11.00;;;;;23.18;64.90;101621.75;5029102;28;8894;-67
2022/08/25 03:33:00;;;;;;;;;16.50;16.50;;;;;23.17;64.34;101622.00;5032860;28;8922;-67
2022/08/25 03:35:27;;;;;;;;;13.50;12.75;;;;;23.14;64.39;101620.63;5030373;28;8808;-68
2022/08/25 03:37:57;;;;;;;;;13.75;13.00;;;;;23.14;64.15;101617.06;5038905;28;8825;-67
2022/08/25 03:40:25;;;;;;;;;13.25;13.25;;;;;23.15;63.71;101611.28;5032673;28;8868;-67
2022/08/25 03:42:52;;;;;;;;;10.00;10.00;;;;;23.18;63.54;101612.69;5030554;28;8820;-66
2022/08/25 03:45:19;;;;;;;;;13.75;13.75;;;;;23.16;63.23;101604.69;5029921;28;8852;-67
2022/08/25 03:47:48;;;;;;;;;12.50;12.50;;;;;23.15;63.01;101603.03;5025101;28;8838;-67
2022/08/25 03:50:16;;;;;;;;;12.75;12.75;;;;;23.14;62.77;101603.31;5035400;28;8805;-67
2022/08/25 03:52:42;;;;;;;;;12.50;11.75;;;;;23.14;62.95;101604.13;5021885;28;8817;-67
2022/08/25 03:55:11;;;;;;;;;14.25;13.25;;;;;23.13;62.87;101610.72;5030150;28;8952;-67
2022/08/25 03:57:38;;;;;;;;;13.50;12.00;;;;;23.11;62.64;101601.91;5030478;28;8852;-67
2022/08/25 04:00:07;;;;;;;;;12.75;12.75;;;;;23.11;62.58;101603.81;5028565;28;8856;-66
2022/08/25 04:02:38;;;;;;;;;11.50;11.50;;;;;23.07;62.73;101591.69;5033392;28;8840;-67
2022/08/25 04:05:05;;;;;;;;;13.50;12.75;;;;;23.08;62.53;101601.59;5032207;28;8849;-66
2022/08/25 04:07:31;;;;;;;;;12.00;12.00;;;;;23.07;62.48;101592.53;5035797;28;8817;-67
2022/08/25 04:09:58;;;;;;;;;12.50;12.50;;;;;23.06;62.40;101581.81;5034826;28;8832;-67
2022/08/25 04:12:24;;;;;;;;;11.25;10.00;;;;;23.06;62.30;101584.56;5027917;28;8865;-67
2022/08/25 04:14:50;;;;;;;;;15.25;14.00;;;;;23.02;62.26;101576.00;5030814;28;8960;-66
2022/08/25 04:17:17;;;;;;;;;14.50;12.00;;;;;22.99;61.84;101575.69;5029427;28;8885;-67
2022/08/25 04:19:44;;;;;;;;;13.00;13.00;;;;;22.98;61.71;101582.28;5027716;28;8902;-67
2022/08/25 04:22:10;;;;;;;;;14.25;13.25;;;;;22.96;61.74;101582.53;5030935;28;8839;-67
2022/08/25 04:24:39;;;;;;;;;13.50;12.25;;;;;22.95;61.40;101576.22;5030888;28;8855;-67
2022/08/25 04:27:05;;;;;;;;;12.25;12.25;;;;;22.95;61.14;101578.94;5028390;28;8963;-67
2022/08/25 04:29:32;;;;;;;;;12.00;12.00;;;;;22.91;60.79;101568.75;5020845;28;8823;-65
2022/08/25 04:31:59;;;;;;;;;13.50;13.50;;;;;22.89;60.69;101570.91;5030359;28;8822;-67
2022/08/25 04:34:26;;;;;;;;;11.75;11.75;;;;;22.90;60.58;101564.31;5029232;28;8821;-67
2022/08/25 04:37:02;;;;;;;;;11.75;11.00;;;;;22.88;60.25;101569.22;5034995;28;8833;-67
2022/08/25 04:39:29;;;;;;;;;11.50;10.75;;;;;22.86;59.87;101565.94;5025282;28;8832;-67
2022/08/25 04:41:56;;;;;;;;;12.50;11.50;;;;;22.85;59.61;101576.09;5029775;28;8891;-66
2022/08/25 04:44:22;;;;;;;;;13.00;13.00;;;;;22.84;59.63;101573.59;5029840;28;8840;-67
2022/08/25 04:46:49;;;;;;;;;10.00;10.00;;;;;22.86;59.41;101576.91;5027787;28;8816;-67
2022/08/25 04:49:15;;;;;;;;;10.50;10.50;;;;;22.88;59.34;101569.22;5033097;28;9522;-67
2022/08/25 04:51:42;;;;;;;;;11.75;11.75;;;;;22.88;58.92;101574.72;5031511;28;8865;-66
2022/08/25 04:54:12;;;;;;;;;9.75;9.75;;;;;22.88;58.93;101569.22;5039815;28;9531;-67
2022/08/25 04:56:39;;;;;;;;;9.00;8.00;;;;;22.89;59.03;101571.72;5029039;28;8829;-68
2022/08/25 04:59:12;;;;;;;;;9.25;9.25;;;;;22.90;58.90;101570.66;5031309;28;9605;-66
2022/08/25 05:01:41;;;;;;;;;9.25;8.25;;;;;22.91;58.89;101569.56;5029558;28;8844;-67
2022/08/25 05:04:09;;;;;;;;;8.00;8.00;;;;;22.90;59.03;101569.81;5033371;28;8884;-67
2022/08/25 05:06:53;;;;;;;;;7.00;7.00;;;;;22.88;58.73;101578.28;5032349;28;8837;-67
2022/08/25 05:09:20;;;;;;;;;8.00;8.00;;;;;22.87;58.38;101573.06;5044135;28;8837;-66
2022/08/25 05:11:47;;;;;;;;;10.00;10.00;;;;;22.85;58.22;101580.72;5028780;28;8841;-67
2022/08/25 05:14:17;;;;;;;;;8.25;8.25;;;;;22.85;58.30;101583.47;5030603;28;8809;-67
2022/08/25 05:16:43;;;;;;;;;7.25;7.25;;;;;22.85;58.33;101586.22;5030281;28;8835;-67
2022/08/25 05:19:10;;;;;;;;;9.25;9.25;;;;;22.83;58.13;101585.66;5035280;28;8906;-66
2022/08/25 05:21:37;;;;;;;;;12.00;8.25;;;;;22.83;57.96;101588.41;5036879;28;9002;-66
2022/08/25 05:24:03;;;;;;;;;8.00;8.00;;;;;22.78;57.40;101585.59;5032752;28;8840;-66
2022/08/25 05:26:31;;;;;;;;;10.25;9.25;;;;;22.74;57.46;101585.28;5031683;28;8821;-67
2022/08/25 05:29:00;;;;;;;;;8.25;8.25;;;;;22.77;57.32;101583.94;5034058;28;8824;-67
2022/08/25 05:31:27;;;;;;;;;7.00;7.00;;;;;22.80;57.23;101583.41;5031653;28;8910;-67
2022/08/25 05:33:55;;;;;;;;;9.00;9.00;;;;;22.80;57.04;101578.75;5033291;28;8833;-67
2022/08/25 05:36:23;;;;;;;;;9.25;8.25;;;;;22.81;56.84;101582.31;5048902;28;8934;-67
2022/08/25 05:38:49;;;;;;;;;11.00;8.50;;;;;22.82;56.59;101586.75;5032051;28;8905;-67
2022/08/25 05:41:19;;;;;;;;;10.00;8.75;;;;;22.81;56.71;101587.81;5037493;28;8930;-67
2022/08/25 05:43:47;;;;;;;;;8.75;8.75;;;;;22.79;56.56;101587.25;5032638;28;8840;-66
2022/08/25 05:46:17;;;;;;;;;8.75;8.75;;;;;22.78;56.48;101591.94;5050025;23;8880;-66
2022/08/25 05:48:43;;;;;;;;;10.00;10.00;;;;;22.75;56.32;101591.59;5028004;28;8840;-67
2022/08/25 05:51:12;;;;;;;;;9.25;9.25;;;;;22.74;56.05;101590.78;5033066;28;9648;-67
2022/08/25 05:53:41;;;;;;;;;9.00;9.00;;;;;22.74;56.15;101603.69;5033416;28;8939;-66
2022/08/25 05:56:08;;;;;;;;;8.75;8.25;;;;;22.71;56.03;101592.09;5027208;28;8839;-67
2022/08/25 05:58:35;;;;;;;;;8.75;8.75;;;;;22.73;56.07;101588.28;5025541;28;8828;-66
2022/08/25 06:03:48;;;;;;;;;9.00;8.50;;;;;22.76;56.11;101593.25;5032577;28;8801;-67
2022/08/25 06:06:15;;;;;;;;;9.50;9.00;;;;;22.73;55.94;101589.13;5024621;28;8837;-66
2022/08/25 06:08:43;;;;;;;;;10.25;10.25;;;;;22.74;55.86;101588.03;5032849;28;8908;-66
2022/08/25 06:11:11;;;;;;;;;7.25;6.75;;;;;22.74;56.05;101585.28;5021181;28;8889;-68
2022/08/25 06:13:38;;;;;;;;;9.00;9.00;;;;;22.77;56.13;101586.66;5031996;28;8836;-67
2022/08/25 06:16:05;;;;;;;;;8.00;8.00;;;;;22.79;55.98;101595.50;5030195;28;8879;-67
2022/08/25 06:18:31;;;;;;;;;11.75;11.75;;;;;22.81;55.98;101596.06;5030298;28;8822;-67
2022/08/25 06:20:58;;;;;;;;;8.50;8.50;;;;;22.81;55.53;101591.41;5023016;28;8854;-68
2022/08/25 06:23:24;;;;;;;;;8.25;7.25;;;;;22.86;55.65;101585.97;5013709;28;8843;-66
2022/08/25 06:25:52;;;;;;;;;11.75;10.75;;;;;22.86;55.09;101582.41;5026129;28;8870;-67
2022/08/25 06:28:19;;;;;;;;;9.75;9.75;;;;;22.86;54.86;101579.66;5016599;28;8847;-67
2022/08/25 06:30:46;;;;;;;;;11.50;11.00;;;;;22.86;54.96;101582.41;5028566;28;8840;-66
2022/08/25 06:33:13;;;;;;;;;11.50;10.00;;;;;22.87;54.84;101587.63;5025168;28;8829;-67
2022/08/25 06:35:42;;;;;;;;;8.00;8.00;;;;;22.90;54.76;101583.53;5023479;28;8856;-67
2022/08/25 06:38:09;;;;;;;;;9.00;8.50;;;;;22.89;54.89;101588.22;5022485;28;8915;-67
2022/08/25 06:40:36;;;;;;;;;12.00;12.00;;;;;22.83;54.38;101596.63;5042824;28;8914;-67
2022/08/25 06:43:07;;;;;;;;;8.00;7.00;;;;;22.84;54.62;101590.06;5023428;28;8834;-67
2022/08/25 06:45:34;;;;;;;;;11.75;10.75;;;;;22.85;54.34;101591.69;5029537;28;8828;-68
2022/08/25 06:48:00;;;;;;;;;9.25;9.25;;;;;22.88;54.43;101588.44;5028835;28;8832;-67
2022/08/25 06:50:27;;;;;;;;;10.75;10.75;;;;;22.88;53.91;101586.53;5023601;28;8828;-67
2022/08/25 06:52:53;;;;;;;;;8.50;8.50;;;;;22.92;54.11;101586.88;5012153;28;8843;-67
2022/08/25 06:55:20;;;;;;;;;9.75;8.50;;;;;22.96;54.27;101588.00;5011942;28;8842;-67
2022/08/25 06:57:47;;;;;;;;;9.00;9.00;;;;;23.01;54.08;101581.75;5028769;28;8820;-66
2022/08/25 07:00:13;;;;;;;;;10.00;10.00;;;;;23.04;54.08;101579.31;5020040;28;9525;-66
2022/08/25 07:02:41;;;;;;;;;11.00;10.25;;;;;23.06;53.74;101584.56;5016807;28;8964;-68
2022/08/25 07:05:07;;;;;;;;;9.00;9.00;;;;;23.09;53.87;101584.88;5023433;28;8831;-68
2022/08/25 07:07:39;;;;;;;;;9.00;8.00;;;;;23.12;53.31;101578.84;5016973;28;8832;-67
2022/08/25 07:10:09;;;;;;;;;9.50;9.50;;;;;23.17;52.87;101584.41;5026606;28;8840;-69
2022/08/25 07:12:36;;;;;;;;;11.25;9.75;;;;;23.20;53.32;101589.34;5031360;28;8828;-68
2022/08/25 07:15:02;;;;;;;;;12.50;12.50;;;;;23.20;52.78;101581.13;5026004;28;8828;-67
2022/08/25 07:17:45;;;;;;;;;10.75;10.00;;;;;23.25;52.69;101585.00;5020461;28;8850;-65
2022/08/25 07:20:12;;;;;;;;;11.50;11.50;;;;;23.31;52.45;101589.47;5028150;28;8824;-67
2022/08/25 07:22:40;;;;;;;;;9.00;8.25;;;;;23.39;52.51;101587.06;5023720;28;8811;-66
2022/08/25 07:25:08;;;;;;;;;10.50;10.00;;;;;23.45;51.88;101588.75;5027544;28;8858;-66
2022/08/25 07:27:34;;;;;;;;;13.50;12.25;;;;;23.48;51.66;101584.66;5028073;28;9026;-66
2022/08/25 07:30:00;;;;;;;;;8.50;8.50;;;;;23.53;51.90;101581.94;5028992;28;8906;-66
2022/08/25 07:32:29;;;;;;;;;9.00;8.50;;;;;23.56;51.87;101577.84;5019783;28;8843;-66
2022/08/25 07:35:14;;;;;;;;;8.75;8.75;;;;;23.64;51.69;101578.19;5016068;28;9261;-66
2022/08/25 07:37:46;;;;;;;;;7.25;7.25;;;;;23.69;51.76;101581.00;5018634;28;8828;-67
2022/08/25 07:40:22;;;;;;;;;6.75;6.75;;;;;23.76;51.72;101577.19;5015672;28;8839;-67
2022/08/25 07:42:51;;;;;;;;;9.00;9.00;;;;;23.79;51.41;101579.41;5022851;28;8860;-66
2022/08/25 07:45:19;;;;;;;;;8.00;8.00;;;;;23.84;51.28;101587.69;5023461;28;8946;-66
2022/08/25 07:47:46;;;;;;;;;5.50;5.50;;;;;23.89;51.21;101576.72;5025747;28;8831;-67
2022/08/25 07:50:17;;;;;;;;;8.50;8.50;;;;;23.97;50.75;101581.72;5022124;28;8839;-66
2022/08/25 07:52:43;;;;;;;;;9.00;8.00;;;;;24.02;50.58;101573.50;5030192;28;8893;-66
2022/08/25 07:55:19;;;;;;;;;7.00;7.00;;;;;24.08;50.41;101572.44;5025961;28;10000;-66
2022/08/25 07:57:46;;;;;;;;;10.50;9.00;;;;;24.13;50.62;101574.38;5018846;28;8851;-67
2022/08/25 08:00:19;;;;;;;;;6.75;6.25;;;;;24.23;50.57;101568.94;5024026;28;8819;-66
2022/08/25 08:02:45;;;;;;;;;6.75;6.75;;;;;24.33;50.57;101581.91;5022909;28;8934;-66
2022/08/25 08:05:13;;;;;;;;;10.00;8.00;;;;;24.39;50.91;101581.72;5030551;28;8844;-65
2022/08/25 08:07:40;;;;;;;;;8.50;7.50;;;;;24.40;50.59;101580.59;5028816;28;8852;-65
2022/08/25 08:10:11;;;;;;;;;7.25;6.75;;;;;24.47;50.45;101577.63;5035676;28;8848;-66
2022/08/25 08:12:58;;;;;;;;;9.50;9.50;;;;;24.50;50.46;101571.56;5013683;28;8927;-65
2022/08/25 08:15:25;;;;;;;;;7.50;6.75;;;;;24.56;50.17;101572.41;5024774;28;8856;-66
2022/08/25 08:17:56;;;;;;;;;8.75;8.75;;;;;24.64;49.98;101580.16;5022321;28;8897;-66
2022/08/25 08:20:23;;;;;;;;;8.00;7.50;;;;;24.73;49.91;101574.94;5030534;28;9648;-66
2022/08/25 08:22:50;;;;;;;;;6.00;6.00;;;;;24.83;49.27;101572.19;5029304;28;8944;-67
2022/08/25 08:25:17;;;;;;;;;8.00;7.75;;;;;24.88;49.15;101564.78;5027637;28;8886;-66
2022/08/25 08:27:47;;;;;;;;;8.25;7.25;;;;;24.96;48.93;101568.09;5025952;28;8836;-67
2022/08/25 08:30:14;;;;;;;;;10.50;10.50;;;;;25.00;49.14;101560.94;5028115;28;8820;-67
2022/08/25 08:32:40;;;;;;;;;12.00;11.00;;;;;25.04;49.11;101560.13;5023156;28;8939;-67
2022/08/25 08:35:27;;;;;;;;;9.25;9.25;;;;;25.05;48.59;101563.72;5026200;28;8824;-67
2022/08/25 08:37:53;;;;;;;;;7.00;7.00;;;;;25.13;48.26;101558.50;5023987;28;8828;-67
2022/08/25 08:40:20;;;;;;;;;8.00;8.00;;;;;25.20;48.49;101562.91;5010661;28;9504;-67
2022/08/25 08:43:05;;;;;;;;;8.25;6.50;;;;;25.26;48.32;101559.88;5024904;28;8926;-66
2022/08/25 08:45:42;;;;;;;;;6.75;6.75;;;;;25.34;48.08;101558.50;5018573;28;8817;-67
2022/08/25 08:48:37;;;;;;;;;9.50;8.75;;;;;25.45;47.79;101554.66;5023879;28;8828;-66
2022/08/25 08:51:23;;;;;;;;;7.75;7.75;;;;;25.49;47.52;101554.94;5027758;28;8844;-67
2022/08/25 08:54:07;;;;;;;;;9.00;9.00;;;;;25.52;47.13;101557.97;5020817;28;8852;-68
2022/08/25 08:56:46;;;;;;;;;5.25;5.25;;;;;25.59;47.28;101558.50;5023275;28;8895;-68
2022/08/25 08:59:21;;;;;;;;;8.00;7.25;;;;;25.69;46.88;101562.34;5016346;28;8820;-67
2022/08/25 09:01:58;;;;;;;;;9.00;8.00;;;;;25.77;46.57;101557.13;5024897;28;8847;-66
2022/08/25 09:04:36;;;;;;;;;7.00;6.50;;;;;25.87;47.27;101553.50;5028389;28;8935;-66
2022/08/25 09:07:09;;;;;;;;;11.75;10.00;;;;;25.93;47.10;101559.81;5026977;28;8895;-67
2022/08/25 09:09:40;;;;;;;;;10.00;9.00;;;;;25.97;46.51;101550.75;5023070;28;8832;-67
2022/08/25 09:12:40;;;;;;;;;7.25;7.00;;;;;26.06;46.33;101562.84;5029712;28;8847;-68
2022/08/25 09:18:41;;;;;;;;;7.25;6.25;;;;;26.21;47.02;101559.22;5015948;28;9514;-67
2022/08/25 09:21:57;;;;;;;;;7.50;7.00;;;;;26.28;46.27;101564.41;5016661;28;8827;-68
2022/08/25 09:24:45;;;;;;;;;9.00;9.00;;;;;26.40;45.48;101564.91;5020747;28;9863;-67
2022/08/25 09:27:27;;;;;;;;;8.00;8.00;;;;;26.43;45.90;101555.25;5028618;28;8940;-68
2022/08/25 09:30:11;;;;;;;;;12.50;12.00;;;;;26.52;45.05;101554.38;5028298;28;8824;-66
2022/08/25 09:32:41;;;;;;;;;8.00;7.50;;;;;26.59;45.07;101554.91;5020772;28;8999;-67
2022/08/25 09:35:22;;;;;;;;;10.33;7.00;;;;;26.61;44.92;101551.84;5026318;28;8839;-67
2022/08/25 09:37:55;;;;;;;;;10.00;8.50;;;;;26.63;45.38;101555.16;5028421;28;8909;-67
2022/08/25 09:40:24;;;;;;;;;8.00;7.50;;;;;26.63;44.66;101552.41;5028154;28;8841;-67
2022/08/25 09:42:56;;;;;;;;;9.00;9.00;;;;;26.72;44.14;101541.59;5027258;28;8836;-68
2022/08/25 09:45:40;;;;;;;;;7.50;7.50;;;;;26.88;44.16;101545.91;5019842;28;9513;-67
2022/08/25 09:48:21;;;;;;;;;11.00;11.00;;;;;26.98;43.11;101540.31;5023128;28;8890;-67
2022/08/25 09:50:50;;;;;;;;;8.00;8.00;;;;;27.08;43.81;101536.63;5009210;28;8827;-67
2022/08/25 09:53:18;;;;;;;;;9.75;7.50;;;;;27.18;43.75;101539.31;5027669;28;8947;-67
2022/08/25 09:56:04;;;;;;;;;9.00;9.00;;;;;27.17;44.03;101529.41;5022317;28;8863;-67
2022/08/25 09:58:31;;;;;;;;;9.75;9.75;;;;;27.15;43.68;101533.59;5018902;28;8835;-68
2022/08/25 10:01:17;;;;;;;;;10.00;8.25;;;;;27.15;43.30;101534.41;5017935;28;8824;-67
2022/08/25 10:03:55;;;;;;;;;8.50;8.00;;;;;27.26;42.98;101530.41;5028969;28;8828;-66
2022/08/25 10:06:24;;;;;;;;;10.00;10.00;;;;;27.35;42.35;101525.09;5024026;28;8876;-68
2022/08/25 10:08:56;;;;;;;;;8.50;8.50;;;;;27.45;42.95;101522.22;5020933;28;8835;-67
2022/08/25 10:11:40;;;;;;;;;7.75;7.00;;;;;27.56;42.36;101520.19;5021501;28;8950;-67
2022/08/25 10:14:31;;;;;;;;;8.50;8.50;;;;;27.62;42.79;101521.78;5023376;28;9847;-67
2022/08/25 10:17:31;;;;;;;;;8.75;8.75;;;;;27.68;41.95;101520.63;5012808;28;8882;-67
2022/08/25 10:20:19;;;;;;;;;8.25;7.75;;;;;27.73;42.37;101508.69;5030468;28;8836;-68
2022/08/25 10:22:48;;;;;;;;;9.25;8.75;;;;;27.77;42.08;101512.53;5029973;28;9746;-68
2022/08/25 10:25:25;;;;;;;;;6.00;6.00;;;;;27.82;42.33;101510.53;5030229;28;8971;-67
2022/08/25 10:28:04;;;;;;;;;7.50;7.00;;;;;27.90;42.14;101520.13;5029689;28;8927;-68
2022/08/25 10:30:50;;;;;;;;;10.00;9.25;;;;;27.88;41.14;101511.31;5018133;28;8824;-68
2022/08/25 10:33:35;;;;;;;;;7.75;7.00;;;;;27.94;41.43;101509.28;5034750;28;8975;-66
2022/08/25 10:36:20;;;;;;;;;8.00;8.00;;;;;27.99;41.70;101509.22;5012148;28;8860;-67
2022/08/25 10:38:56;;;;;;;;;6.00;6.00;;;;;28.10;40.54;101510.75;5012127;28;8829;-67
2022/08/25 10:41:59;;;;;;;;;6.75;6.75;;;;;28.15;40.57;101499.59;5022970;28;8849;-68
2022/08/25 10:47:51;;;;;;;;;7.00;6.50;;;;;28.12;39.36;101491.91;5017215;28;8902;-69
2022/08/25 10:50:23;;;;;;;;;9.75;8.75;;;;;28.20;39.25;101484.91;5031023;28;8825;-68
2022/08/25 10:53:38;;;;;;;;;9.25;9.25;;;;;28.30;38.75;101487.50;5027583;28;8867;-68
2022/08/25 10:56:21;;;;;;;;;7.75;6.00;;;;;28.50;38.18;101480.91;5028862;28;8933;-68
2022/08/25 10:59:00;;;;;;;;;11.75;11.25;;;;;28.52;37.87;101481.41;5016387;28;8971;-67
2022/08/25 11:01:37;;;;;;;;;9.00;9.00;;;;;28.55;37.91;101467.78;5022057;28;8820;-67
2022/08/25 11:04:27;;;;;;;;;6.75;6.75;;;;;28.55;39.25;101470.56;5023332;28;8919;-67
2022/08/25 11:07:38;;;;;;;;;7.00;7.00;;;;;28.58;37.03;101469.13;5029712;28;9664;-67
2022/08/25 11:10:36;;;;;;;;;9.00;8.00;;;;;28.54;36.85;101465.31;5028622;28;8905;-66
2022/08/25 11:13:08;;;;;;;;;9.00;9.00;;;;;28.49;37.50;101459.88;5030399;28;8821;-68
2022/08/25 11:15:53;;;;;;;;;8.75;8.25;;;;;28.41;37.12;101461.38;5028183;28;8852;-67
2022/08/25 11:19:01;;;;;;;;;5.00;5.00;;;;;28.37;37.17;101460.31;5024912;28;9565;-66
2022/08/25 11:21:50;;;;;;;;;7.50;6.75;;;;;28.33;37.08;101460.06;5030386;28;8833;-67
2022/08/25 11:24:35;;;;;;;;;6.75;6.75;;;;;28.35;37.14;101459.75;5022908;28;8832;-66
2022/08/25 11:27:05;;;;;;;;;7.00;7.00;;;;;28.40;37.98;101465.25;5031014;28;8922;-67
2022/08/25 11:29:36;;;;;;;;;5.00;5.00;;;;;28.51;36.63;101447.34;5022654;28;8827;-67
2022/08/25 11:32:05;;;;;;;;;5.00;5.00;;;;;28.66;36.84;101451.03;5027663;28;8997;-67
2022/08/25 11:34:35;;;;;;;;;4.00;4.00;;;;;28.75;36.83;101457.50;5029312;28;8955;-67
2022/08/25 11:37:27;;;;;;;;;8.25;6.75;;;;;28.74;35.52;101451.16;5016081;28;9542;-67
2022/08/25 11:40:35;;;;;;;;;5.75;5.75;;;;;28.70;34.93;101458.41;5011262;28;8845;-67
2022/08/25 11:43:11;;;;;;;;;4.75;4.75;;;;;28.72;35.36;101453.38;4991992;28;8830;-66
2022/08/25 11:46:02;;;;;;;;;5.25;5.25;;;;;28.72;35.27;101458.09;5023675;28;8852;-67
2022/08/25 11:48:58;;;;;;;;;7.25;7.25;;;;;28.77;34.92;101453.31;5022953;28;8808;-67
2022/08/25 11:51:46;;;;;;;;;6.00;6.00;;;;;28.89;35.96;101447.31;5021367;28;8845;-67
2022/08/25 11:54:18;;;;;;;;;5.75;5.75;;;;;29.00;34.47;101445.19;5025900;28;8832;-67
2022/08/25 11:56:59;;;;;;;;;6.00;6.00;;;;;29.21;34.34;101443.72;5027302;28;8832;-67
2022/08/25 11:59:49;;;;;;;;;7.00;6.25;;;;;29.27;34.83;101436.13;5019028;28;9533;-67